Taurus — WDB5562 — position and weather

sailwx.info

Track history (hours):
 
Tides and Currents Weather Stations Pressure Air Temp Water Temp Dewpoint Dewpoint Depression Visibility Wind Speed Wind Dir Waves Ship Positions

Taurus

Owner: Kirby Offshore Marine, LLC, Seattle, WA. More information available from US FCC via Universal Licensing System and Coast Guard Vessel Documentation Center.

Last reported at 2017-Aug-19 05:00 UTC. Time now 2017-Aug-19 05:26 UTC.
Position N 39°50' W 075°23'.

Length 24 m.

Type: Ship (hazmat cat B). MMSI: 366910990.

Date/timePositionNaut miles runAvg speedWind from/ knotsBaromVisibWave heightAir tempDewpointWater temp
2017-Aug-19 05:00N 39°50' W 075°23'0 0.0
2017-Aug-19 04:31N 39°50' W 075°23'0 0.0
2017-Aug-19 04:00N 39°50' W 075°23'0 0.0
2017-Aug-19 03:31N 39°50' W 075°23'0 0.0
2017-Aug-19 03:00N 39°50' W 075°23'0 0.0
2017-Aug-19 02:31N 39°50' W 075°23'0 0.0
2017-Aug-19 02:01N 39°50' W 075°23'0 0.0
2017-Aug-19 01:31N 39°50' W 075°23'0 0.0
2017-Aug-19 01:00N 39°50' W 075°23'0 0.0
2017-Aug-19 00:30N 39°50' W 075°23'0 0.0
2017-Aug-19 00:00N 39°50' W 075°23'0 0.0
2017-Aug-18 23:30N 39°50' W 075°23'0 0.1
2017-Aug-18 23:01N 39°50' W 075°23'2 4.7
2017-Aug-18 22:30N 39°51' W 075°20'4 7.1
2017-Aug-18 22:01N 39°51' W 075°16'0 0.1
2017-Aug-18 21:30N 39°51' W 075°16'0 0.0
2017-Aug-18 21:00N 39°51' W 075°16'0 0.0
2017-Aug-18 20:30N 39°51' W 075°16'0 0.0
2017-Aug-18 20:01N 39°51' W 075°16'0 0.0
2017-Aug-18 19:31N 39°51' W 075°16'0 0.1
2017-Aug-18 19:00N 39°51' W 075°16'0 0.6
2017-Aug-18 18:30N 39°51' W 075°16'0 0.1
2017-Aug-18 18:01N 39°51' W 075°16'0 0.0
2017-Aug-18 17:31N 39°51' W 075°16'0 0.0
2017-Aug-18 17:01N 39°51' W 075°16'0 0.0
2017-Aug-18 16:31N 39°51' W 075°16'0 0.0
2017-Aug-18 16:01N 39°51' W 075°16'0 0.0
2017-Aug-18 15:31N 39°51' W 075°16'0 0.0
2017-Aug-18 15:01N 39°51' W 075°16'0 0.0
2017-Aug-18 14:00N 39°51' W 075°16'0 0.0
2017-Aug-18 13:30N 39°51' W 075°16'0 0.1
2017-Aug-18 13:01N 39°51' W 075°15'0 0.7
2017-Aug-18 12:30N 39°51' W 075°16'0 0.0
2017-Aug-18 12:00N 39°51' W 075°16'0 0.0
2017-Aug-18 11:31N 39°51' W 075°16'0 0.0
2017-Aug-18 11:00N 39°51' W 075°16'0 0.0
2017-Aug-18 10:30N 39°51' W 075°16'0 0.0
2017-Aug-18 10:01N 39°51' W 075°16'0 0.0
2017-Aug-18 09:30N 39°51' W 075°16'0 0.0
2017-Aug-18 09:00N 39°51' W 075°16'0 0.0
2017-Aug-18 08:31N 39°51' W 075°16'0 0.0
2017-Aug-18 08:01N 39°51' W 075°16'0 0.0
2017-Aug-18 07:30N 39°51' W 075°16'0 0.0
2017-Aug-18 07:01N 39°51' W 075°16'0 0.0
2017-Aug-18 06:30N 39°51' W 075°16'0 0.0
2017-Aug-18 06:00N 39°51' W 075°16'0 0.0
2017-Aug-18 05:31N 39°51' W 075°16'0 0.0
2017-Aug-18 05:00N 39°51' W 075°16'0 0.0
2017-Aug-18 04:30N 39°51' W 075°16'2 3.4
2017-Aug-18 04:00N 39°51' W 075°14'2 4.1
2017-Aug-18 03:30N 39°53' W 075°12'4 7.1
2017-Aug-18 03:00N 39°55' W 075°08'3 5.6
2017-Aug-18 02:30N 39°57' W 075°08'3 5.0
2017-Aug-18 02:00N 39°59' W 075°05'1 1.1
2017-Aug-18 01:31N 39°59' W 075°04'3 6.3
2017-Aug-18 01:00N 39°57' W 075°08'5 9.0
2017-Aug-18 00:30N 39°53' W 075°09'3 6.2
2017-Aug-18 00:01N 39°54' W 075°13'1 2.1
2017-Aug-17 23:30N 39°53' W 075°12'4 7.2
2017-Aug-17 23:01N 39°51' W 075°16'0 0.7
2017-Aug-17 22:30N 39°51' W 075°15'0 0.3
2017-Aug-17 22:01N 39°51' W 075°16'0 0.0
2017-Aug-17 21:30N 39°51' W 075°16'0 0.0
2017-Aug-17 21:00N 39°51' W 075°16'0 0.0
2017-Aug-17 20:30N 39°51' W 075°16'0 0.0
2017-Aug-17 20:01N 39°51' W 075°16'0 0.0
2017-Aug-17 19:30N 39°51' W 075°16'0 0.0
2017-Aug-17 19:01N 39°51' W 075°16'0 0.0
2017-Aug-17 18:31N 39°51' W 075°16'0 0.0
2017-Aug-17 18:00N 39°51' W 075°16'0 0.0
2017-Aug-17 17:30N 39°51' W 075°16'0 0.0
2017-Aug-17 17:00N 39°51' W 075°16'0 0.0
2017-Aug-17 16:30N 39°51' W 075°16'0 0.0
2017-Aug-17 16:00N 39°51' W 075°16'0 0.0
2017-Aug-17 15:30N 39°51' W 075°16'0 0.4
2017-Aug-17 15:00N 39°51' W 075°16'0 0.1
2017-Aug-17 14:30N 39°51' W 075°16'0 0.0
2017-Aug-17 14:00N 39°51' W 075°16'0 0.0
2017-Aug-17 13:30N 39°51' W 075°16'0 0.0
2017-Aug-17 13:00N 39°51' W 075°16'0 0.1
2017-Aug-17 12:30N 39°51' W 075°16'1 1.2
2017-Aug-17 12:00N 39°51' W 075°16'3 6.9
2017-Aug-17 11:30N 39°50' W 075°21'2 0.1
2017-Aug-16 19:14N 39°50' W 075°23'1 4.0
2017-Aug-16 19:01N 39°50' W 075°22'510.5
2017-Aug-16 18:30N 39°51' W 075°15'4 7.2
2017-Aug-16 18:00N 39°54' W 075°12'0 0.8
2017-Aug-16 17:31N 39°54' W 075°13'2 4.3
2017-Aug-16 17:00N 39°53' W 075°10'3 6.4
2017-Aug-16 16:31N 39°56' W 075°08'4 7.2
2017-Aug-16 16:00N 39°59' W 075°05'1 1.1
2017-Aug-16 15:30N 39°59' W 075°05'0 0.0
2017-Aug-16 15:00N 39°59' W 075°05'0 0.0
2017-Aug-16 14:30N 39°59' W 075°05'0 0.0
2017-Aug-16 14:00N 39°59' W 075°05'0 0.0
2017-Aug-16 13:31N 39°59' W 075°05'0 0.0
2017-Aug-16 13:01N 39°59' W 075°05'0 0.0
2017-Aug-16 12:30N 39°59' W 075°05'0 0.0
2017-Aug-16 12:00N 39°59' W 075°05'0 0.0
2017-Aug-16 11:30N 39°59' W 075°05'0 0.0
2017-Aug-16 11:00N 39°59' W 075°05'0 0.4
2017-Aug-16 10:31N 39°59' W 075°05'4 7.8
2017-Aug-16 10:00N 39°56' W 075°08'4 7.1
2017-Aug-16 09:30N 39°53' W 075°11'2 3.6
2017-Aug-16 09:00N 39°54' W 075°13'1 1.4
2017-Aug-16 08:30N 39°54' W 075°12'1 0.1
2017-Aug-15 19:31N 39°54' W 075°13'0 0.0
2017-Aug-15 19:30N 39°54' W 075°13'0 0.8
2017-Aug-15 19:01N 39°54' W 075°12'3 5.5
2017-Aug-15 18:31N 39°53' W 075°09'4 7.3
2017-Aug-15 18:00N 39°57' W 075°08'4 7.1
2017-Aug-15 17:31N 39°59' W 075°05'1 1.8
2017-Aug-15 17:00N 39°59' W 075°06'3 6.7
2017-Aug-15 16:30N 39°56' W 075°08'3 6.2
2017-Aug-15 16:00N 39°53' W 075°10'3 6.0
2017-Aug-15 15:31N 39°55' W 075°13'0 0.2
2017-Aug-15 15:00N 39°55' W 075°13'0 0.1
2017-Aug-15 14:30N 39°55' W 075°13'0 0.1
2017-Aug-15 14:00N 39°55' W 075°13'0 0.0
2017-Aug-15 13:30N 39°55' W 075°13'1 2.2
2017-Aug-15 13:00N 39°54' W 075°12'2 3.9
2017-Aug-15 12:31N 39°52' W 075°13'3 5.6
2017-Aug-15 12:00N 39°51' W 075°17'3 5.5
2017-Aug-15 11:30N 39°51' W 075°20'1 2.4
2017-Aug-15 11:00N 39°50' W 075°22'0 0.1
2017-Aug-15 10:30N 39°50' W 075°22'0 0.1
2017-Aug-15 10:00N 39°50' W 075°22'0 0.0
2017-Aug-15 09:30N 39°50' W 075°22'3 5.4
2017-Aug-15 09:00N 39°51' W 075°18'4 7.2
2017-Aug-15 08:30N 39°52' W 075°14'2 0.2
2017-Aug-14 21:25N 39°54' W 075°12'2 4.2
2017-Aug-14 21:00N 39°53' W 075°10'3 5.8
2017-Aug-14 20:30N 39°56' W 075°08'3 6.4
2017-Aug-14 20:00N 39°58' W 075°06'1 2.7
2017-Aug-14 19:30N 39°59' W 075°05'3 6.1
2017-Aug-14 19:00N 39°57' W 075°08'4 7.8
2017-Aug-14 18:30N 39°54' W 075°08'3 5.3
2017-Aug-14 18:00N 39°53' W 075°12'1 1.8
2017-Aug-14 17:30N 39°54' W 075°13'1 1.4
2017-Aug-14 17:00N 39°54' W 075°12'0 0.0
2017-Aug-13 19:53N 39°54' W 075°12'1 1.9
2017-Aug-13 19:31N 39°54' W 075°13'0 0.0
2017-Aug-13 19:01N 39°54' W 075°13'1 2.0
2017-Aug-13 18:30N 39°53' W 075°12'2 4.3
2017-Aug-13 18:00N 39°53' W 075°09'3 6.3
2017-Aug-13 17:31N 39°56' W 075°08'3 6.7
2017-Aug-13 17:00N 39°59' W 075°05'1 1.3
2017-Aug-13 16:30N 39°59' W 075°05'0 0.1
2017-Aug-13 16:01N 39°59' W 075°05'0 0.0
2017-Aug-13 15:30N 39°59' W 075°05'0 0.0
2017-Aug-13 15:00N 39°59' W 075°05'0 0.0
2017-Aug-13 14:30N 39°59' W 075°05'0 0.0
2017-Aug-13 14:00N 39°59' W 075°05'0 0.0
2017-Aug-13 13:30N 39°59' W 075°05'0 0.0
2017-Aug-13 13:00N 39°59' W 075°05'0 0.0
2017-Aug-13 12:30N 39°59' W 075°05'0 0.0
2017-Aug-13 12:00N 39°59' W 075°05'0 0.0
2017-Aug-13 11:30N 39°59' W 075°05'1 1.8
2017-Aug-13 11:00N 39°59' W 075°06'3 6.7
2017-Aug-13 10:30N 39°56' W 075°08'3 6.4
2017-Aug-13 10:00N 39°53' W 075°10'2 4.7
2017-Aug-13 09:30N 39°54' W 075°13'0 0.0
2017-Aug-13 09:00N 39°54' W 075°13'1 1.4
2017-Aug-13 08:30N 39°54' W 075°12'1 0.0
2017-Aug-11 19:25N 39°54' W 075°13'0 0.9
2017-Aug-11 19:00N 39°54' W 075°12'2 3.4
2017-Aug-11 18:30N 39°53' W 075°10'2 4.2
2017-Aug-11 18:00N 39°54' W 075°08'2 4.4
2017-Aug-11 17:30N 39°56' W 075°08'2 4.9
2017-Aug-11 17:00N 39°58' W 075°07'2 3.6
2017-Aug-11 16:30N 39°59' W 075°05'0 0.0
2017-Aug-11 16:00N 39°59' W 075°05'0 0.1
2017-Aug-11 15:30N 39°59' W 075°05'0 0.0
2017-Aug-11 15:00N 39°59' W 075°05'0 0.0
2017-Aug-11 14:00N 39°59' W 075°05'0 0.0
2017-Aug-11 13:30N 39°59' W 075°05'0 0.0
2017-Aug-11 12:46N 39°59' W 075°05'0 0.0
2017-Aug-11 12:30N 39°59' W 075°05'0 0.0
2017-Aug-11 12:00N 39°59' W 075°05'0 0.0
2017-Aug-11 11:30N 39°59' W 075°05'0 0.1
2017-Aug-11 11:00N 39°59' W 075°05'3 5.6
2017-Aug-11 10:30N 39°58' W 075°08'3 6.8
2017-Aug-11 10:00N 39°54' W 075°08'3 6.4
2017-Aug-11 09:31N 39°53' W 075°12'1 2.4
2017-Aug-11 09:00N 39°54' W 075°13'1 1.4
2017-Aug-11 08:29N 39°54' W 075°12'1 0.0
2017-Aug-10 19:10N 39°54' W 075°13'0 0.4
2017-Aug-10 19:00N 39°54' W 075°13'1 2.1
2017-Aug-10 18:30N 39°53' W 075°12'2 3.6
2017-Aug-10 18:00N 39°53' W 075°09'2 3.8
2017-Aug-10 17:31N 39°54' W 075°08'2 4.3
2017-Aug-10 17:00N 39°57' W 075°08'2 4.2
2017-Aug-10 16:30N 39°58' W 075°07'2 3.4
2017-Aug-10 16:00N 39°59' W 075°05'0 0.1
2017-Aug-10 15:30N 39°59' W 075°05'0 0.0
2017-Aug-10 15:00N 39°59' W 075°05'0 0.0
2017-Aug-10 14:31N 39°59' W 075°05'0 0.0
2017-Aug-10 14:00N 39°59' W 075°05'0 0.0
2017-Aug-10 13:30N 39°59' W 075°05'0 0.0
2017-Aug-10 13:00N 39°59' W 075°05'0 0.0
2017-Aug-10 12:30N 39°59' W 075°05'0 0.0
2017-Aug-10 12:00N 39°59' W 075°05'0 0.1
2017-Aug-10 11:30N 39°59' W 075°05'3 5.6
2017-Aug-10 11:00N 39°57' W 075°08'3 5.8
2017-Aug-10 10:30N 39°55' W 075°08'3 5.2
2017-Aug-10 10:00N 39°53' W 075°10'2 4.3
2017-Aug-10 09:31N 39°54' W 075°13'0 0.1
2017-Aug-10 09:00N 39°54' W 075°13'1 1.4
2017-Aug-10 08:30N 39°54' W 075°12'0 0.0
2017-Aug-09 19:12N 39°54' W 075°12'0 0.1
2017-Aug-09 19:01N 39°54' W 075°12'1 2.0
2017-Aug-09 18:31N 39°54' W 075°13'2 3.8
2017-Aug-09 18:01N 39°53' W 075°11'2 4.3
2017-Aug-09 17:31N 39°54' W 075°08'3 5.0
2017-Aug-09 17:00N 39°56' W 075°08'2 4.1
2017-Aug-09 16:31N 39°58' W 075°07'2 3.8
2017-Aug-09 16:01N 39°59' W 075°05'0 0.1
2017-Aug-09 15:30N 39°59' W 075°05'0 0.0
2017-Aug-09 15:01N 39°59' W 075°05'0 0.0
2017-Aug-09 14:30N 39°59' W 075°05'0 0.0
2017-Aug-09 14:00N 39°59' W 075°05'0 0.0
2017-Aug-09 13:30N 39°59' W 075°05'0 0.0
2017-Aug-09 13:00N 39°59' W 075°05'0 0.0
2017-Aug-09 12:30N 39°59' W 075°05'0 0.0
2017-Aug-09 12:00N 39°59' W 075°05'0 0.0
2017-Aug-09 11:30N 39°59' W 075°05'1 2.1
2017-Aug-09 11:00N 39°58' W 075°06'3 5.7
2017-Aug-09 10:31N 39°56' W 075°08'3 6.0
2017-Aug-09 10:01N 39°53' W 075°08'3 5.0
2017-Aug-09 09:31N 39°53' W 075°12'1 2.0
2017-Aug-09 09:00N 39°54' W 075°13'1 1.5
2017-Aug-09 08:30N 39°54' W 075°12'0 0.0
2017-Aug-09 08:00N 39°54' W 075°12'  
Track history (hours):
 
Tides and Currents Weather Stations Pressure Air Temp Water Temp Dewpoint Dewpoint Depression Visibility Wind Speed Wind Dir Waves Ship Positions

Taurus

Owner: Kirby Offshore Marine, LLC, Seattle, WA. More information available from US FCC via Universal Licensing System and Coast Guard Vessel Documentation Center.

Last reported at 2017-Aug-19 05:00 UTC. Time now 2017-Aug-19 05:26 UTC.
Position N 39°50' W 075°23'.

Length 24 m.

Type: Ship (hazmat cat B). MMSI: 366910990.

Date/timePositionNaut miles runAvg speedWind from/ knotsBaromVisibWave heightAir tempDewpointWater temp
2017-Aug-19 05:00N 39°50' W 075°23'0 0.0
2017-Aug-19 04:31N 39°50' W 075°23'0 0.0
2017-Aug-19 04:00N 39°50' W 075°23'0 0.0
2017-Aug-19 03:31N 39°50' W 075°23'0 0.0
2017-Aug-19 03:00N 39°50' W 075°23'0 0.0
2017-Aug-19 02:31N 39°50' W 075°23'0 0.0
2017-Aug-19 02:01N 39°50' W 075°23'0 0.0
2017-Aug-19 01:31N 39°50' W 075°23'0 0.0
2017-Aug-19 01:00N 39°50' W 075°23'0 0.0
2017-Aug-19 00:30N 39°50' W 075°23'0 0.0
2017-Aug-19 00:00N 39°50' W 075°23'0 0.0
2017-Aug-18 23:30N 39°50' W 075°23'0 0.1
2017-Aug-18 23:01N 39°50' W 075°23'2 4.7
2017-Aug-18 22:30N 39°51' W 075°20'4 7.1
2017-Aug-18 22:01N 39°51' W 075°16'0 0.1
2017-Aug-18 21:30N 39°51' W 075°16'0 0.0
2017-Aug-18 21:00N 39°51' W 075°16'0 0.0
2017-Aug-18 20:30N 39°51' W 075°16'0 0.0
2017-Aug-18 20:01N 39°51' W 075°16'0 0.0
2017-Aug-18 19:31N 39°51' W 075°16'0 0.1
2017-Aug-18 19:00N 39°51' W 075°16'0 0.6
2017-Aug-18 18:30N 39°51' W 075°16'0 0.1
2017-Aug-18 18:01N 39°51' W 075°16'0 0.0
2017-Aug-18 17:31N 39°51' W 075°16'0 0.0
2017-Aug-18 17:01N 39°51' W 075°16'0 0.0
2017-Aug-18 16:31N 39°51' W 075°16'0 0.0
2017-Aug-18 16:01N 39°51' W 075°16'0 0.0
2017-Aug-18 15:31N 39°51' W 075°16'0 0.0
2017-Aug-18 15:01N 39°51' W 075°16'0 0.0
2017-Aug-18 14:00N 39°51' W 075°16'0 0.0
2017-Aug-18 13:30N 39°51' W 075°16'0 0.1
2017-Aug-18 13:01N 39°51' W 075°15'0 0.7
2017-Aug-18 12:30N 39°51' W 075°16'0 0.0
2017-Aug-18 12:00N 39°51' W 075°16'0 0.0
2017-Aug-18 11:31N 39°51' W 075°16'0 0.0
2017-Aug-18 11:00N 39°51' W 075°16'0 0.0
2017-Aug-18 10:30N 39°51' W 075°16'0 0.0
2017-Aug-18 10:01N 39°51' W 075°16'0 0.0
2017-Aug-18 09:30N 39°51' W 075°16'0 0.0
2017-Aug-18 09:00N 39°51' W 075°16'0 0.0
2017-Aug-18 08:31N 39°51' W 075°16'0 0.0
2017-Aug-18 08:01N 39°51' W 075°16'0 0.0
2017-Aug-18 07:30N 39°51' W 075°16'0 0.0
2017-Aug-18 07:01N 39°51' W 075°16'0 0.0
2017-Aug-18 06:30N 39°51' W 075°16'0 0.0
2017-Aug-18 06:00N 39°51' W 075°16'0 0.0
2017-Aug-18 05:31N 39°51' W 075°16'0 0.0
2017-Aug-18 05:00N 39°51' W 075°16'0 0.0
2017-Aug-18 04:30N 39°51' W 075°16'2 3.4
2017-Aug-18 04:00N 39°51' W 075°14'2 4.1
2017-Aug-18 03:30N 39°53' W 075°12'4 7.1
2017-Aug-18 03:00N 39°55' W 075°08'3 5.6
2017-Aug-18 02:30N 39°57' W 075°08'3 5.0
2017-Aug-18 02:00N 39°59' W 075°05'1 1.1
2017-Aug-18 01:31N 39°59' W 075°04'3 6.3
2017-Aug-18 01:00N 39°57' W 075°08'5 9.0
2017-Aug-18 00:30N 39°53' W 075°09'3 6.2
2017-Aug-18 00:01N 39°54' W 075°13'1 2.1
2017-Aug-17 23:30N 39°53' W 075°12'4 7.2
2017-Aug-17 23:01N 39°51' W 075°16'0 0.7
2017-Aug-17 22:30N 39°51' W 075°15'0 0.3
2017-Aug-17 22:01N 39°51' W 075°16'0 0.0
2017-Aug-17 21:30N 39°51' W 075°16'0 0.0
2017-Aug-17 21:00N 39°51' W 075°16'0 0.0
2017-Aug-17 20:30N 39°51' W 075°16'0 0.0
2017-Aug-17 20:01N 39°51' W 075°16'0 0.0
2017-Aug-17 19:30N 39°51' W 075°16'0 0.0
2017-Aug-17 19:01N 39°51' W 075°16'0 0.0
2017-Aug-17 18:31N 39°51' W 075°16'0 0.0
2017-Aug-17 18:00N 39°51' W 075°16'0 0.0
2017-Aug-17 17:30N 39°51' W 075°16'0 0.0
2017-Aug-17 17:00N 39°51' W 075°16'0 0.0
2017-Aug-17 16:30N 39°51' W 075°16'0 0.0
2017-Aug-17 16:00N 39°51' W 075°16'0 0.0
2017-Aug-17 15:30N 39°51' W 075°16'0 0.4
2017-Aug-17 15:00N 39°51' W 075°16'0 0.1
2017-Aug-17 14:30N 39°51' W 075°16'0 0.0
2017-Aug-17 14:00N 39°51' W 075°16'0 0.0
2017-Aug-17 13:30N 39°51' W 075°16'0 0.0
2017-Aug-17 13:00N 39°51' W 075°16'0 0.1
2017-Aug-17 12:30N 39°51' W 075°16'1 1.2
2017-Aug-17 12:00N 39°51' W 075°16'3 6.9
2017-Aug-17 11:30N 39°50' W 075°21'2 0.1
2017-Aug-16 19:14N 39°50' W 075°23'1 4.0
2017-Aug-16 19:01N 39°50' W 075°22'510.5
2017-Aug-16 18:30N 39°51' W 075°15'4 7.2
2017-Aug-16 18:00N 39°54' W 075°12'0 0.8
2017-Aug-16 17:31N 39°54' W 075°13'2 4.3
2017-Aug-16 17:00N 39°53' W 075°10'3 6.4
2017-Aug-16 16:31N 39°56' W 075°08'4 7.2
2017-Aug-16 16:00N 39°59' W 075°05'1 1.1
2017-Aug-16 15:30N 39°59' W 075°05'0 0.0
2017-Aug-16 15:00N 39°59' W 075°05'0 0.0
2017-Aug-16 14:30N 39°59' W 075°05'0 0.0
2017-Aug-16 14:00N 39°59' W 075°05'0 0.0
2017-Aug-16 13:31N 39°59' W 075°05'0 0.0
2017-Aug-16 13:01N 39°59' W 075°05'0 0.0
2017-Aug-16 12:30N 39°59' W 075°05'0 0.0
2017-Aug-16 12:00N 39°59' W 075°05'0 0.0
2017-Aug-16 11:30N 39°59' W 075°05'0 0.0
2017-Aug-16 11:00N 39°59' W 075°05'0 0.4
2017-Aug-16 10:31N 39°59' W 075°05'4 7.8
2017-Aug-16 10:00N 39°56' W 075°08'4 7.1
2017-Aug-16 09:30N 39°53' W 075°11'2 3.6
2017-Aug-16 09:00N 39°54' W 075°13'1 1.4
2017-Aug-16 08:30N 39°54' W 075°12'1 0.1
2017-Aug-15 19:31N 39°54' W 075°13'0 0.0
2017-Aug-15 19:30N 39°54' W 075°13'0 0.8
2017-Aug-15 19:01N 39°54' W 075°12'3 5.5
2017-Aug-15 18:31N 39°53' W 075°09'4 7.3
2017-Aug-15 18:00N 39°57' W 075°08'4 7.1
2017-Aug-15 17:31N 39°59' W 075°05'1 1.8
2017-Aug-15 17:00N 39°59' W 075°06'3 6.7
2017-Aug-15 16:30N 39°56' W 075°08'3 6.2
2017-Aug-15 16:00N 39°53' W 075°10'3 6.0
2017-Aug-15 15:31N 39°55' W 075°13'0 0.2
2017-Aug-15 15:00N 39°55' W 075°13'0 0.1
2017-Aug-15 14:30N 39°55' W 075°13'0 0.1
2017-Aug-15 14:00N 39°55' W 075°13'0 0.0
2017-Aug-15 13:30N 39°55' W 075°13'1 2.2
2017-Aug-15 13:00N 39°54' W 075°12'2 3.9
2017-Aug-15 12:31N 39°52' W 075°13'3 5.6
2017-Aug-15 12:00N 39°51' W 075°17'3 5.5
2017-Aug-15 11:30N 39°51' W 075°20'1 2.4
2017-Aug-15 11:00N 39°50' W 075°22'0 0.1
2017-Aug-15 10:30N 39°50' W 075°22'0 0.1
2017-Aug-15 10:00N 39°50' W 075°22'0 0.0
2017-Aug-15 09:30N 39°50' W 075°22'3 5.4
2017-Aug-15 09:00N 39°51' W 075°18'4 7.2
2017-Aug-15 08:30N 39°52' W 075°14'2 0.2
2017-Aug-14 21:25N 39°54' W 075°12'2 4.2
2017-Aug-14 21:00N 39°53' W 075°10'3 5.8
2017-Aug-14 20:30N 39°56' W 075°08'3 6.4
2017-Aug-14 20:00N 39°58' W 075°06'1 2.7
2017-Aug-14 19:30N 39°59' W 075°05'3 6.1
2017-Aug-14 19:00N 39°57' W 075°08'4 7.8
2017-Aug-14 18:30N 39°54' W 075°08'3 5.3
2017-Aug-14 18:00N 39°53' W 075°12'1 1.8
2017-Aug-14 17:30N 39°54' W 075°13'1 1.4
2017-Aug-14 17:00N 39°54' W 075°12'0 0.0
2017-Aug-13 19:53N 39°54' W 075°12'1 1.9
2017-Aug-13 19:31N 39°54' W 075°13'0 0.0
2017-Aug-13 19:01N 39°54' W 075°13'1 2.0
2017-Aug-13 18:30N 39°53' W 075°12'2 4.3
2017-Aug-13 18:00N 39°53' W 075°09'3 6.3
2017-Aug-13 17:31N 39°56' W 075°08'3 6.7
2017-Aug-13 17:00N 39°59' W 075°05'1 1.3
2017-Aug-13 16:30N 39°59' W 075°05'0 0.1
2017-Aug-13 16:01N 39°59' W 075°05'0 0.0
2017-Aug-13 15:30N 39°59' W 075°05'0 0.0
2017-Aug-13 15:00N 39°59' W 075°05'0 0.0
2017-Aug-13 14:30N 39°59' W 075°05'0 0.0
2017-Aug-13 14:00N 39°59' W 075°05'0 0.0
2017-Aug-13 13:30N 39°59' W 075°05'0 0.0
2017-Aug-13 13:00N 39°59' W 075°05'0 0.0
2017-Aug-13 12:30N 39°59' W 075°05'0 0.0
2017-Aug-13 12:00N 39°59' W 075°05'0 0.0
2017-Aug-13 11:30N 39°59' W 075°05'1 1.8
2017-Aug-13 11:00N 39°59' W 075°06'3 6.7
2017-Aug-13 10:30N 39°56' W 075°08'3 6.4
2017-Aug-13 10:00N 39°53' W 075°10'2 4.7
2017-Aug-13 09:30N 39°54' W 075°13'0 0.0
2017-Aug-13 09:00N 39°54' W 075°13'1 1.4
2017-Aug-13 08:30N 39°54' W 075°12'1 0.0
2017-Aug-11 19:25N 39°54' W 075°13'0 0.9
2017-Aug-11 19:00N 39°54' W 075°12'2 3.4
2017-Aug-11 18:30N 39°53' W 075°10'2 4.2
2017-Aug-11 18:00N 39°54' W 075°08'2 4.4
2017-Aug-11 17:30N 39°56' W 075°08'2 4.9
2017-Aug-11 17:00N 39°58' W 075°07'2 3.6
2017-Aug-11 16:30N 39°59' W 075°05'0 0.0
2017-Aug-11 16:00N 39°59' W 075°05'0 0.1
2017-Aug-11 15:30N 39°59' W 075°05'0 0.0
2017-Aug-11 15:00N 39°59' W 075°05'0 0.0
2017-Aug-11 14:00N 39°59' W 075°05'0 0.0
2017-Aug-11 13:30N 39°59' W 075°05'0 0.0
2017-Aug-11 12:46N 39°59' W 075°05'0 0.0
2017-Aug-11 12:30N 39°59' W 075°05'0 0.0
2017-Aug-11 12:00N 39°59' W 075°05'0 0.0
2017-Aug-11 11:30N 39°59' W 075°05'0 0.1
2017-Aug-11 11:00N 39°59' W 075°05'3 5.6
2017-Aug-11 10:30N 39°58' W 075°08'3 6.8
2017-Aug-11 10:00N 39°54' W 075°08'3 6.4
2017-Aug-11 09:31N 39°53' W 075°12'1 2.4
2017-Aug-11 09:00N 39°54' W 075°13'1 1.4
2017-Aug-11 08:29N 39°54' W 075°12'1 0.0
2017-Aug-10 19:10N 39°54' W 075°13'0 0.4
2017-Aug-10 19:00N 39°54' W 075°13'1 2.1
2017-Aug-10 18:30N 39°53' W 075°12'2 3.6
2017-Aug-10 18:00N 39°53' W 075°09'2 3.8
2017-Aug-10 17:31N 39°54' W 075°08'2 4.3
2017-Aug-10 17:00N 39°57' W 075°08'2 4.2
2017-Aug-10 16:30N 39°58' W 075°07'2 3.4
2017-Aug-10 16:00N 39°59' W 075°05'0 0.1
2017-Aug-10 15:30N 39°59' W 075°05'0 0.0
2017-Aug-10 15:00N 39°59' W 075°05'0 0.0
2017-Aug-10 14:31N 39°59' W 075°05'0 0.0
2017-Aug-10 14:00N 39°59' W 075°05'0 0.0
2017-Aug-10 13:30N 39°59' W 075°05'0 0.0
2017-Aug-10 13:00N 39°59' W 075°05'0 0.0
2017-Aug-10 12:30N 39°59' W 075°05'0 0.0
2017-Aug-10 12:00N 39°59' W 075°05'0 0.1
2017-Aug-10 11:30N 39°59' W 075°05'3 5.6
2017-Aug-10 11:00N 39°57' W 075°08'3 5.8
2017-Aug-10 10:30N 39°55' W 075°08'3 5.2
2017-Aug-10 10:00N 39°53' W 075°10'2 4.3
2017-Aug-10 09:31N 39°54' W 075°13'0 0.1
2017-Aug-10 09:00N 39°54' W 075°13'1 1.4
2017-Aug-10 08:30N 39°54' W 075°12'0 0.0
2017-Aug-09 19:12N 39°54' W 075°12'0 0.1
2017-Aug-09 19:01N 39°54' W 075°12'1 2.0
2017-Aug-09 18:31N 39°54' W 075°13'2 3.8
2017-Aug-09 18:01N 39°53' W 075°11'2 4.3
2017-Aug-09 17:31N 39°54' W 075°08'3 5.0
2017-Aug-09 17:00N 39°56' W 075°08'2 4.1
2017-Aug-09 16:31N 39°58' W 075°07'2 3.8
2017-Aug-09 16:01N 39°59' W 075°05'0 0.1
2017-Aug-09 15:30N 39°59' W 075°05'0 0.0
2017-Aug-09 15:01N 39°59' W 075°05'0 0.0
2017-Aug-09 14:30N 39°59' W 075°05'0 0.0
2017-Aug-09 14:00N 39°59' W 075°05'0 0.0
2017-Aug-09 13:30N 39°59' W 075°05'0 0.0
2017-Aug-09 13:00N 39°59' W 075°05'0 0.0
2017-Aug-09 12:30N 39°59' W 075°05'0 0.0
2017-Aug-09 12:00N 39°59' W 075°05'0 0.0
2017-Aug-09 11:30N 39°59' W 075°05'1 2.1
2017-Aug-09 11:00N 39°58' W 075°06'3 5.7
2017-Aug-09 10:31N 39°56' W 075°08'3 6.0
2017-Aug-09 10:01N 39°53' W 075°08'3 5.0
2017-Aug-09 09:31N 39°53' W 075°12'1 2.0
2017-Aug-09 09:00N 39°54' W 075°13'1 1.5
2017-Aug-09 08:30N 39°54' W 075°12'0 0.0
2017-Aug-09 08:00N 39°54' W 075°12'  

Dump ship's entire track history